Wilmont, Minnesota
Current Conditions -  °F | °C
As of 4:35 AM on Monday 22 Dec 2014 (Local Time) from KOTG Reporting Station
Overcast Overcast  
Wind Chill: 31°   Ceiling: 200
Heat Index: 39°   Visibility: 2mi
Dew Point: -11°   Wind: 14mph
Humidity: 11%   Direction: 160°SSE
Pressure: 29.54"   Gusts: NA
Location:  43.76°N, 95.83°W
Report Text: KOTG 221035Z AUTO 16012KT 2SM OVC002 04/M24 A2954 RMK AO1
Loading
Personal Weather Stations






























Interactive Weather Map New forecast layout! Learn more

10-Day Weather Forecast

Advertisements
Track Severe Weather on mobile